sensor_id;sensor_type;location;lat;lon;timestamp;pressure;altitude;pressure_sealevel;temperature
64184;BMP280;50485;49.768;8.636;2022-07-06T00:01:19;100920.09;;;27.98
64184;BMP280;50485;49.768;8.636;2022-07-06T00:03:44;100909.50;;;27.96
64184;BMP280;50485;49.768;8.636;2022-07-06T00:06:09;100922.13;;;27.94
64184;BMP280;50485;49.768;8.636;2022-07-06T00:08:34;100920.56;;;27.93
64184;BMP280;50485;49.768;8.636;2022-07-06T00:11:00;100930.78;;;27.92
64184;BMP280;50485;49.768;8.636;2022-07-06T00:13:25;100935.53;;;27.92
64184;BMP280;50485;49.768;8.636;2022-07-06T00:15:50;100937.13;;;27.89
64184;BMP280;50485;49.768;8.636;2022-07-06T00:18:16;100942.63;;;27.89
64184;BMP280;50485;49.768;8.636;2022-07-06T00:20:41;100934.03;;;27.87
64184;BMP280;50485;49.768;8.636;2022-07-06T00:23:06;100943.44;;;27.86
64184;BMP280;50485;49.768;8.636;2022-07-06T00:25:31;100936.41;;;27.85
64184;BMP280;50485;49.768;8.636;2022-07-06T00:27:56;100943.88;;;27.85
64184;BMP280;50485;49.768;8.636;2022-07-06T00:30:21;100937.19;;;27.82
64184;BMP280;50485;49.768;8.636;2022-07-06T00:32:47;100937.63;;;27.81
64184;BMP280;50485;49.768;8.636;2022-07-06T00:35:12;100944.31;;;27.80
64184;BMP280;50485;49.768;8.636;2022-07-06T00:37:37;100941.56;;;27.80
64184;BMP280;50485;49.768;8.636;2022-07-06T00:40:02;100943.53;;;27.79
64184;BMP280;50485;49.768;8.636;2022-07-06T00:42:28;100950.63;;;27.77
64184;BMP280;50485;49.768;8.636;2022-07-06T00:44:53;100944.34;;;27.76
64184;BMP280;50485;49.768;8.636;2022-07-06T00:47:18;100943.59;;;27.76
64184;BMP280;50485;49.768;8.636;2022-07-06T00:49:43;100942.81;;;27.75
64184;BMP280;50485;49.768;8.636;2022-07-06T00:52:27;100944.41;;;27.72
64184;BMP280;50485;49.768;8.636;2022-07-06T00:54:52;100940.50;;;27.70
64184;BMP280;50485;49.768;8.636;2022-07-06T00:57:18;100935.00;;;27.70
64184;BMP280;50485;49.768;8.636;2022-07-06T00:59:44;100937.38;;;27.68
64184;BMP280;50485;49.768;8.636;2022-07-06T01:02:09;100937.38;;;27.68
64184;BMP280;50485;49.768;8.636;2022-07-06T01:04:34;100936.22;;;27.65
64184;BMP280;50485;49.768;8.636;2022-07-06T01:07:00;100938.19;;;27.65
64184;BMP280;50485;49.768;8.636;2022-07-06T01:09:25;100931.13;;;27.64
64184;BMP280;50485;49.768;8.636;2022-07-06T01:11:51;100935.06;;;27.63
64184;BMP280;50485;49.768;8.636;2022-07-06T01:14:16;100944.50;;;27.62
64184;BMP280;50485;49.768;8.636;2022-07-06T01:16:42;100939.00;;;27.62
64184;BMP280;50485;49.768;8.636;2022-07-06T01:19:08;100944.16;;;27.60
64184;BMP280;50485;49.768;8.636;2022-07-06T01:21:33;100942.22;;;27.57
64184;BMP280;50485;49.768;8.636;2022-07-06T01:23:58;100940.63;;;27.56
64184;BMP280;50485;49.768;8.636;2022-07-06T01:26:23;100935.53;;;27.54
64184;BMP280;50485;49.768;8.636;2022-07-06T01:28:49;100939.47;;;27.57
64184;BMP280;50485;49.768;8.636;2022-07-06T01:31:16;100933.56;;;27.55
64184;BMP280;50485;49.768;8.636;2022-07-06T01:33:43;100928.09;;;27.51
64184;BMP280;50485;49.768;8.636;2022-07-06T01:36:08;100937.13;;;27.52
64184;BMP280;50485;49.768;8.636;2022-07-06T01:38:42;100936.78;;;27.50
64184;BMP280;50485;49.768;8.636;2022-07-06T01:41:08;100932.44;;;27.49
64184;BMP280;50485;49.768;8.636;2022-07-06T01:43:33;100946.63;;;27.47
64184;BMP280;50485;49.768;8.636;2022-07-06T01:45:58;100940.34;;;27.47
64184;BMP280;50485;49.768;8.636;2022-07-06T01:48:23;100942.69;;;27.45
64184;BMP280;50485;49.768;8.636;2022-07-06T01:50:48;100946.66;;;27.44
64184;BMP280;50485;49.768;8.636;2022-07-06T01:53:13;100931.34;;;27.43
64184;BMP280;50485;49.768;8.636;2022-07-06T01:55:39;100937.25;;;27.41
64184;BMP280;50485;49.768;8.636;2022-07-06T01:58:04;100933.72;;;27.41
64184;BMP280;50485;49.768;8.636;2022-07-06T02:00:29;100935.69;;;27.40
64184;BMP280;50485;49.768;8.636;2022-07-06T02:02:54;100940.41;;;27.39
64184;BMP280;50485;49.768;8.636;2022-07-06T02:05:19;100936.06;;;27.38
64184;BMP280;50485;49.768;8.636;2022-07-06T02:07:45;100937.28;;;27.37
64184;BMP280;50485;49.768;8.636;2022-07-06T02:10:10;100928.66;;;27.35
64184;BMP280;50485;49.768;8.636;2022-07-06T02:12:35;100942.41;;;27.35
64184;BMP280;50485;49.768;8.636;2022-07-06T02:15:00;100938.09;;;27.34
64184;BMP280;50485;49.768;8.636;2022-07-06T02:17:25;100937.72;;;27.32
64184;BMP280;50485;49.768;8.636;2022-07-06T02:19:50;100933.00;;;27.33
64184;BMP280;50485;49.768;8.636;2022-07-06T02:22:16;100941.28;;;27.29
64184;BMP280;50485;49.768;8.636;2022-07-06T02:24:41;100940.09;;;27.30
64184;BMP280;50485;49.768;8.636;2022-07-06T02:27:06;100946.78;;;27.29
64184;BMP280;50485;49.768;8.636;2022-07-06T02:29:31;100954.25;;;27.29
64184;BMP280;50485;49.768;8.636;2022-07-06T02:31:56;100951.91;;;27.27
64184;BMP280;50485;49.768;8.636;2022-07-06T02:34:22;100948.00;;;27.25
64184;BMP280;50485;49.768;8.636;2022-07-06T02:36:47;100954.31;;;27.25
64184;BMP280;50485;49.768;8.636;2022-07-06T02:39:12;100956.25;;;27.25
64184;BMP280;50485;49.768;8.636;2022-07-06T02:41:37;100953.13;;;27.23
64184;BMP280;50485;49.768;8.636;2022-07-06T02:44:03;100958.22;;;27.24
64184;BMP280;50485;49.768;8.636;2022-07-06T02:46:28;100960.59;;;27.22
64184;BMP280;50485;49.768;8.636;2022-07-06T02:48:53;100963.34;;;27.22
64184;BMP280;50485;49.768;8.636;2022-07-06T02:51:18;100961.00;;;27.21
64184;BMP280;50485;49.768;8.636;2022-07-06T02:53:43;100973.63;;;27.18
64184;BMP280;50485;49.768;8.636;2022-07-06T02:56:09;100968.91;;;27.19
64184;BMP280;50485;49.768;8.636;2022-07-06T02:58:34;100968.13;;;27.18
64184;BMP280;50485;49.768;8.636;2022-07-06T03:00:59;100963.00;;;27.17
64184;BMP280;50485;49.768;8.636;2022-07-06T03:03:24;100964.97;;;27.16
64184;BMP280;50485;49.768;8.636;2022-07-06T03:05:49;100968.94;;;27.15
64184;BMP280;50485;49.768;8.636;2022-07-06T03:08:15;100967.72;;;27.16
64184;BMP280;50485;49.768;8.636;2022-07-06T03:10:40;100972.06;;;27.14
64184;BMP280;50485;49.768;8.636;2022-07-06T03:13:05;100971.28;;;27.13
64184;BMP280;50485;49.768;8.636;2022-07-06T03:15:30;100974.81;;;27.14
64184;BMP280;50485;49.768;8.636;2022-07-06T03:17:56;100985.03;;;27.13
64184;BMP280;50485;49.768;8.636;2022-07-06T03:20:21;100987.44;;;27.11
64184;BMP280;50485;49.768;8.636;2022-07-06T03:22:46;100992.94;;;27.11
64184;BMP280;50485;49.768;8.636;2022-07-06T03:25:11;100991.75;;;27.12
64184;BMP280;50485;49.768;8.636;2022-07-06T03:27:36;100996.84;;;27.10
64184;BMP280;50485;49.768;8.636;2022-07-06T03:30:02;100993.75;;;27.08
64184;BMP280;50485;49.768;8.636;2022-07-06T03:32:27;100990.59;;;27.10
64184;BMP280;50485;49.768;8.636;2022-07-06T03:34:53;100985.50;;;27.08
64184;BMP280;50485;49.768;8.636;2022-07-06T03:37:18;100990.22;;;27.08
64184;BMP280;50485;49.768;8.636;2022-07-06T03:39:44;100992.16;;;27.07
64184;BMP280;50485;49.768;8.636;2022-07-06T03:42:09;100994.13;;;27.06
64184;BMP280;50485;49.768;8.636;2022-07-06T03:44:34;100989.41;;;27.07
64184;BMP280;50485;49.768;8.636;2022-07-06T03:47:00;100989.41;;;27.07
64184;BMP280;50485;49.768;8.636;2022-07-06T03:49:25;100998.09;;;27.05
64184;BMP280;50485;49.768;8.636;2022-07-06T03:51:52;101000.84;;;27.05
64184;BMP280;50485;49.768;8.636;2022-07-06T03:54:17;100996.88;;;27.06
64184;BMP280;50485;49.768;8.636;2022-07-06T03:56:42;100994.13;;;27.06
64184;BMP280;50485;49.768;8.636;2022-07-06T03:59:08;100991.03;;;27.04
64184;BMP280;50485;49.768;8.636;2022-07-06T04:01:33;100999.28;;;27.04
64184;BMP280;50485;49.768;8.636;2022-07-06T04:03:58;101000.84;;;27.05
64184;BMP280;50485;49.768;8.636;2022-07-06T04:06:23;101007.13;;;27.06
64184;BMP280;50485;49.768;8.636;2022-07-06T04:08:49;101011.06;;;27.05
64184;BMP280;50485;49.768;8.636;2022-07-06T04:11:14;101011.06;;;27.05
64184;BMP280;50485;49.768;8.636;2022-07-06T04:13:39;101007.13;;;27.06
64184;BMP280;50485;49.768;8.636;2022-07-06T04:16:05;101009.09;;;27.05
64184;BMP280;50485;49.768;8.636;2022-07-06T04:18:30;101006.34;;;27.05
64184;BMP280;50485;49.768;8.636;2022-07-06T04:20:56;101015.78;;;27.04
64184;BMP280;50485;49.768;8.636;2022-07-06T04:23:22;101014.16;;;27.07
64184;BMP280;50485;49.768;8.636;2022-07-06T04:25:47;101019.63;;;27.14
64184;BMP280;50485;49.768;8.636;2022-07-06T04:28:13;101018.44;;;27.19
64184;BMP280;50485;49.768;8.636;2022-07-06T04:30:38;101019.56;;;27.25
64184;BMP280;50485;49.768;8.636;2022-07-06T04:33:03;101020.28;;;27.32
64184;BMP280;50485;49.768;8.636;2022-07-06T04:35:28;101014.72;;;27.43
64184;BMP280;50485;49.768;8.636;2022-07-06T04:37:53;101022.47;;;27.52
64184;BMP280;50485;49.768;8.636;2022-07-06T04:40:19;101018.84;;;27.62
64184;BMP280;50485;49.768;8.636;2022-07-06T04:42:44;101024.69;;;27.71
64184;BMP280;50485;49.768;8.636;2022-07-06T04:45:09;101025.41;;;27.79
64184;BMP280;50485;49.768;8.636;2022-07-06T04:47:35;101022.19;;;27.87
64184;BMP280;50485;49.768;8.636;2022-07-06T04:50:00;101024.88;;;27.94
64184;BMP280;50485;49.768;8.636;2022-07-06T04:52:26;101030.38;;;27.94
64184;BMP280;50485;49.768;8.636;2022-07-06T04:54:52;101028.34;;;27.98
64184;BMP280;50485;49.768;8.636;2022-07-06T04:57:17;101025.03;;;28.11
64184;BMP280;50485;49.768;8.636;2022-07-06T04:59:42;101034.88;;;28.15
64184;BMP280;50485;49.768;8.636;2022-07-06T05:02:07;101035.91;;;28.25
64184;BMP280;50485;49.768;8.636;2022-07-06T05:04:33;101039.38;;;28.32
64184;BMP280;50485;49.768;8.636;2022-07-06T05:06:58;101037.66;;;28.42
64184;BMP280;50485;49.768;8.636;2022-07-06T05:09:23;101038.72;;;28.52
64184;BMP280;50485;49.768;8.636;2022-07-06T05:11:48;101044.09;;;28.62
64184;BMP280;50485;49.768;8.636;2022-07-06T05:14:14;101037.66;;;28.72
64184;BMP280;50485;49.768;8.636;2022-07-06T05:16:39;101042.25;;;28.83
64184;BMP280;50485;49.768;8.636;2022-07-06T05:19:04;101046.94;;;28.86
64184;BMP280;50485;49.768;8.636;2022-07-06T05:21:29;101033.59;;;28.81
64184;BMP280;50485;49.768;8.636;2022-07-06T05:23:54;101041.03;;;28.84
64184;BMP280;50485;49.768;8.636;2022-07-06T05:26:20;101052.56;;;29.05
64184;BMP280;50485;49.768;8.636;2022-07-06T05:28:45;101046.75;;;29.23
64184;BMP280;50485;49.768;8.636;2022-07-06T05:31:10;101060.00;;;29.32
64184;BMP280;50485;49.768;8.636;2022-07-06T05:33:35;101056.31;;;29.42
64184;BMP280;50485;49.768;8.636;2022-07-06T05:36:00;101059.72;;;29.50
64184;BMP280;50485;49.768;8.636;2022-07-06T05:38:26;101066.25;;;29.59
64184;BMP280;50485;49.768;8.636;2022-07-06T05:40:51;101060.22;;;29.68
64184;BMP280;50485;49.768;8.636;2022-07-06T05:43:16;101057.28;;;29.75
64184;BMP280;50485;49.768;8.636;2022-07-06T05:45:42;101059.50;;;29.84
64184;BMP280;50485;49.768;8.636;2022-07-06T05:48:07;101061.03;;;29.88
64184;BMP280;50485;49.768;8.636;2022-07-06T05:50:51;101064.78;;;29.98
64184;BMP280;50485;49.768;8.636;2022-07-06T05:53:16;101069.81;;;30.03
64184;BMP280;50485;49.768;8.636;2022-07-06T05:55:41;101056.63;;;30.10
64184;BMP280;50485;49.768;8.636;2022-07-06T05:58:07;101057.34;;;30.14
64184;BMP280;50485;49.768;8.636;2022-07-06T06:00:32;101055.19;;;30.22
64184;BMP280;50485;49.768;8.636;2022-07-06T06:02:57;101051.44;;;30.32
64184;BMP280;50485;49.768;8.636;2022-07-06T06:05:23;101063.63;;;30.35
64184;BMP280;50485;49.768;8.636;2022-07-06T06:07:48;101054.03;;;30.39
64184;BMP280;50485;49.768;8.636;2022-07-06T06:10:16;101062.19;;;30.46
64184;BMP280;50485;49.768;8.636;2022-07-06T06:12:42;101055.63;;;30.57
64184;BMP280;50485;49.768;8.636;2022-07-06T06:15:07;101063.38;;;30.65
64184;BMP280;50485;49.768;8.636;2022-07-06T06:17:33;101068.81;;;30.69
64184;BMP280;50485;49.768;8.636;2022-07-06T06:19:58;101065.47;;;30.77
64184;BMP280;50485;49.768;8.636;2022-07-06T06:22:24;101065.63;;;30.87
64184;BMP280;50485;49.768;8.636;2022-07-06T06:24:49;101059.59;;;30.92
64184;BMP280;50485;49.768;8.636;2022-07-06T06:27:14;101057.38;;;31.03
64184;BMP280;50485;49.768;8.636;2022-07-06T06:29:40;101069.13;;;31.07
64184;BMP280;50485;49.768;8.636;2022-07-06T06:32:06;101068.50;;;31.15
64184;BMP280;50485;49.768;8.636;2022-07-06T06:34:32;101069.28;;;31.16
64184;BMP280;50485;49.768;8.636;2022-07-06T06:36:57;101068.22;;;31.26
64184;BMP280;50485;49.768;8.636;2022-07-06T06:39:22;101068.56;;;31.28
64184;BMP280;50485;49.768;8.636;2022-07-06T06:41:47;101071.53;;;31.37
64184;BMP280;50485;49.768;8.636;2022-07-06T06:44:13;101073.31;;;31.44
64184;BMP280;50485;49.768;8.636;2022-07-06T06:46:39;101075.09;;;31.50
64184;BMP280;50485;49.768;8.636;2022-07-06T06:49:04;101070.94;;;31.59
64184;BMP280;50485;49.768;8.636;2022-07-06T06:51:30;101074.72;;;31.65
64184;BMP280;50485;49.768;8.636;2022-07-06T06:53:55;101077.25;;;31.75
64184;BMP280;50485;49.768;8.636;2022-07-06T06:56:20;101076.25;;;31.82
64184;BMP280;50485;49.768;8.636;2022-07-06T06:58:46;101071.31;;;31.89
64184;BMP280;50485;49.768;8.636;2022-07-06T07:01:11;101080.19;;;31.97
64184;BMP280;50485;49.768;8.636;2022-07-06T07:03:36;101070.13;;;32.03
64184;BMP280;50485;49.768;8.636;2022-07-06T07:06:01;101075.47;;;32.10
64184;BMP280;50485;49.768;8.636;2022-07-06T07:08:26;101070.38;;;32.21
64184;BMP280;50485;49.768;8.636;2022-07-06T07:10:52;101071.38;;;32.15
64184;BMP280;50485;49.768;8.636;2022-07-06T07:13:17;101082.00;;;32.04
64184;BMP280;50485;49.768;8.636;2022-07-06T07:15:42;101084.22;;;31.96
64184;BMP280;50485;49.768;8.636;2022-07-06T07:18:07;101081.53;;;31.92
64184;BMP280;50485;49.768;8.636;2022-07-06T07:20:33;101081.28;;;31.87
64184;BMP280;50485;49.768;8.636;2022-07-06T07:22:59;101074.91;;;31.74
64184;BMP280;50485;49.768;8.636;2022-07-06T07:25:24;101080.78;;;31.76
64184;BMP280;50485;49.768;8.636;2022-07-06T07:27:49;101074.59;;;31.72
64184;BMP280;50485;49.768;8.636;2022-07-06T07:30:14;101079.88;;;31.66
64184;BMP280;50485;49.768;8.636;2022-07-06T07:32:39;101082.66;;;31.66
64184;BMP280;50485;49.768;8.636;2022-07-06T07:35:08;101077.75;;;31.70
64184;BMP280;50485;49.768;8.636;2022-07-06T07:37:33;101078.59;;;31.83
64184;BMP280;50485;49.768;8.636;2022-07-06T07:39:59;101078.34;;;31.78
64184;BMP280;50485;49.768;8.636;2022-07-06T07:42:24;101082.50;;;31.86
64184;BMP280;50485;49.768;8.636;2022-07-06T07:44:49;101076.94;;;31.86
64184;BMP280;50485;49.768;8.636;2022-07-06T07:47:14;101077.47;;;31.81
64184;BMP280;50485;49.768;8.636;2022-07-06T07:49:39;101081.22;;;31.74
64184;BMP280;50485;49.768;8.636;2022-07-06T07:52:05;101081.28;;;31.87
64184;BMP280;50485;49.768;8.636;2022-07-06T07:54:30;101091.69;;;31.83
64184;BMP280;50485;49.768;8.636;2022-07-06T07:56:56;101077.41;;;31.97
64184;BMP280;50485;49.768;8.636;2022-07-06T07:59:21;101085.00;;;32.09
64184;BMP280;50485;49.768;8.636;2022-07-06T08:01:47;101087.38;;;31.95
64184;BMP280;50485;49.768;8.636;2022-07-06T08:04:12;101065.16;;;31.82
64184;BMP280;50485;49.768;8.636;2022-07-06T08:06:37;101072.56;;;31.72
64184;BMP280;50485;49.768;8.636;2022-07-06T08:09:02;101075.69;;;31.74
64184;BMP280;50485;49.768;8.636;2022-07-06T08:11:29;101074.91;;;31.74
64184;BMP280;50485;49.768;8.636;2022-07-06T08:13:54;101074.81;;;31.77
64184;BMP280;50485;49.768;8.636;2022-07-06T08:16:20;101074.69;;;31.81
64184;BMP280;50485;49.768;8.636;2022-07-06T08:18:45;101076.59;;;31.84
64184;BMP280;50485;49.768;8.636;2022-07-06T08:21:10;101077.94;;;31.79
64184;BMP280;50485;49.768;8.636;2022-07-06T08:23:36;101080.13;;;31.72
64184;BMP280;50485;49.768;8.636;2022-07-06T08:26:01;101068.59;;;31.73
64184;BMP280;50485;49.768;8.636;2022-07-06T08:28:27;101074.69;;;31.81
64184;BMP280;50485;49.768;8.636;2022-07-06T08:30:52;101070.81;;;31.78
64184;BMP280;50485;49.768;8.636;2022-07-06T08:33:19;101080.72;;;31.79
64184;BMP280;50485;49.768;8.636;2022-07-06T08:35:44;101090.59;;;31.64
64184;BMP280;50485;49.768;8.636;2022-07-06T08:38:10;101082.16;;;31.55
64184;BMP280;50485;49.768;8.636;2022-07-06T08:40:35;101075.91;;;31.51
64184;BMP280;50485;49.768;8.636;2022-07-06T08:43:01;101083.41;;;31.50
64184;BMP280;50485;49.768;8.636;2022-07-06T08:45:26;101091.56;;;31.58
64184;BMP280;50485;49.768;8.636;2022-07-06T08:47:53;101085.00;;;31.51
64184;BMP280;50485;49.768;8.636;2022-07-06T08:50:18;101093.41;;;31.48
64184;BMP280;50485;49.768;8.636;2022-07-06T08:52:45;101099.47;;;31.43
64184;BMP280;50485;49.768;8.636;2022-07-06T08:55:12;101092.63;;;31.47
64184;BMP280;50485;49.768;8.636;2022-07-06T08:57:37;101093.47;;;31.61
64184;BMP280;50485;49.768;8.636;2022-07-06T09:00:05;101096.84;;;31.68
64184;BMP280;50485;49.768;8.636;2022-07-06T09:02:30;101103.66;;;32.21
64184;BMP280;50485;49.768;8.636;2022-07-06T09:04:56;101088.78;;;32.15
64184;BMP280;50485;49.768;8.636;2022-07-06T09:07:22;101101.81;;;32.31
64184;BMP280;50485;49.768;8.636;2022-07-06T09:09:49;101089.72;;;32.38
64184;BMP280;50485;49.768;8.636;2022-07-06T09:12:14;101101.38;;;32.83
64184;BMP280;50485;49.768;8.636;2022-07-06T09:14:39;101091.84;;;33.88
64184;BMP280;50485;49.768;8.636;2022-07-06T09:17:05;101088.91;;;33.13
64184;BMP280;50485;49.768;8.636;2022-07-06T09:19:31;101086.72;;;32.83
64184;BMP280;50485;49.768;8.636;2022-07-06T09:21:56;101087.94;;;32.94
64184;BMP280;50485;49.768;8.636;2022-07-06T09:24:21;101090.59;;;33.67
64184;BMP280;50485;49.768;8.636;2022-07-06T09:26:47;101083.81;;;32.61
64184;BMP280;50485;49.768;8.636;2022-07-06T09:29:12;101092.53;;;31.96
64184;BMP280;50485;49.768;8.636;2022-07-06T09:31:37;101084.31;;;33.54
64184;BMP280;50485;49.768;8.636;2022-07-06T09:34:03;101087.25;;;32.40
64184;BMP280;50485;49.768;8.636;2022-07-06T09:39:14;101082.47;;;34.74
64184;BMP280;50485;49.768;8.636;2022-07-06T09:41:39;101075.03;;;33.00
64184;BMP280;50485;49.768;8.636;2022-07-06T09:44:04;101084.22;;;31.96
64184;BMP280;50485;49.768;8.636;2022-07-06T09:46:37;101084.66;;;31.78
64184;BMP280;50485;49.768;8.636;2022-07-06T09:49:02;101073.56;;;31.78
64184;BMP280;50485;49.768;8.636;2022-07-06T09:51:29;101086.69;;;33.08
64184;BMP280;50485;49.768;8.636;2022-07-06T09:53:55;101082.66;;;32.08
64184;BMP280;50485;49.768;8.636;2022-07-06T09:56:22;101091.97;;;33.62
64184;BMP280;50485;49.768;8.636;2022-07-06T09:59:00;101092.91;;;35.56
64184;BMP280;50485;49.768;8.636;2022-07-06T10:01:28;101086.53;;;36.25
64184;BMP280;50485;49.768;8.636;2022-07-06T10:03:54;101100.19;;;36.23
64184;BMP280;50485;49.768;8.636;2022-07-06T10:06:19;101087.41;;;33.99
64184;BMP280;50485;49.768;8.636;2022-07-06T10:08:44;101102.56;;;32.32
64184;BMP280;50485;49.768;8.636;2022-07-06T10:11:10;101093.06;;;31.91
64184;BMP280;50485;49.768;8.636;2022-07-06T10:13:39;101090.94;;;32.87
64184;BMP280;50485;49.768;8.636;2022-07-06T10:16:05;101104.25;;;35.52
64184;BMP280;50485;49.768;8.636;2022-07-06T10:18:30;101101.16;;;36.11
64184;BMP280;50485;49.768;8.636;2022-07-06T10:20:56;101103.72;;;34.81
64184;BMP280;50485;49.768;8.636;2022-07-06T10:23:21;101094.47;;;35.57
64184;BMP280;50485;49.768;8.636;2022-07-06T10:25:48;101102.72;;;34.66
64184;BMP280;50485;49.768;8.636;2022-07-06T10:28:13;101098.56;;;33.56
64184;BMP280;50485;49.768;8.636;2022-07-06T10:30:39;101081.72;;;32.90
64184;BMP280;50485;49.768;8.636;2022-07-06T10:33:05;101083.31;;;32.66
64184;BMP280;50485;49.768;8.636;2022-07-06T10:35:30;101077.41;;;32.51
64184;BMP280;50485;49.768;8.636;2022-07-06T10:38:05;101084.72;;;32.33
64184;BMP280;50485;49.768;8.636;2022-07-06T10:40:31;101076.88;;;32.02
64184;BMP280;50485;49.768;8.636;2022-07-06T10:43:15;101087.38;;;31.95
64184;BMP280;50485;49.768;8.636;2022-07-06T10:50:40;101076.94;;;31.86
64184;BMP280;50485;49.768;8.636;2022-07-06T10:53:15;101075.66;;;31.90
64184;BMP280;50485;49.768;8.636;2022-07-06T10:55:45;101078.75;;;31.92
64184;BMP280;50485;49.768;8.636;2022-07-06T10:58:15;101075.38;;;31.85
64184;BMP280;50485;49.768;8.636;2022-07-06T11:00:58;101064.59;;;31.74
64184;BMP280;50485;49.768;8.636;2022-07-06T11:06:16;101067.47;;;31.71
64184;BMP280;50485;49.768;8.636;2022-07-06T11:08:45;101065.56;;;31.68
64184;BMP280;50485;49.768;8.636;2022-07-06T11:11:14;101074.81;;;31.77
64184;BMP280;50485;49.768;8.636;2022-07-06T11:13:42;101064.94;;;31.76
64184;BMP280;50485;49.768;8.636;2022-07-06T11:16:07;101058.72;;;31.72
64184;BMP280;50485;49.768;8.636;2022-07-06T11:18:39;101065.75;;;31.61
64184;BMP280;50485;49.768;8.636;2022-07-06T11:23:40;101059.53;;;31.56
64184;BMP280;50485;49.768;8.636;2022-07-06T11:26:05;101061.03;;;31.45
64184;BMP280;50485;49.768;8.636;2022-07-06T11:28:30;101069.25;;;31.48
64184;BMP280;50485;49.768;8.636;2022-07-06T11:30:56;101056.97;;;31.49
64184;BMP280;50485;49.768;8.636;2022-07-06T11:33:28;101068.03;;;31.49
64184;BMP280;50485;49.768;8.636;2022-07-06T11:35:59;101061.81;;;31.45
64184;BMP280;50485;49.768;8.636;2022-07-06T11:38:35;101059.22;;;31.38
64184;BMP280;50485;49.768;8.636;2022-07-06T11:41:00;101054.22;;;31.33
64184;BMP280;50485;49.768;8.636;2022-07-06T11:43:25;101053.88;;;31.31
64184;BMP280;50485;49.768;8.636;2022-07-06T11:45:50;101047.09;;;31.32
64184;BMP280;50485;49.768;8.636;2022-07-06T11:48:15;101059.91;;;31.26
64184;BMP280;50485;49.768;8.636;2022-07-06T11:50:41;101052.94;;;31.22
64184;BMP280;50485;49.768;8.636;2022-07-06T11:53:06;101042.19;;;31.24
64184;BMP280;50485;49.768;8.636;2022-07-06T11:55:32;101043.13;;;31.17
64184;BMP280;50485;49.768;8.636;2022-07-06T11:57:57;101042.41;;;31.16
64184;BMP280;50485;49.768;8.636;2022-07-06T12:00:24;101042.47;;;31.13
64184;BMP280;50485;49.768;8.636;2022-07-06T12:02:59;101045.47;;;31.18
64184;BMP280;50485;49.768;8.636;2022-07-06T12:05:31;101051.09;;;31.15
64184;BMP280;50485;49.768;8.636;2022-07-06T12:08:06;101035.34;;;31.12
64184;BMP280;50485;49.768;8.636;2022-07-06T12:10:32;101037.88;;;31.06
64184;BMP280;50485;49.768;8.636;2022-07-06T12:13:04;101035.53;;;31.05
64184;BMP280;50485;49.768;8.636;2022-07-06T12:15:29;101048.69;;;31.01
64184;BMP280;50485;49.768;8.636;2022-07-06T12:17:54;101049.53;;;30.98
64184;BMP280;50485;49.768;8.636;2022-07-06T12:20:20;101038.84;;;31.00
64184;BMP280;50485;49.768;8.636;2022-07-06T12:22:45;101019.78;;;31.02
64184;BMP280;50485;49.768;8.636;2022-07-06T12:25:10;101019.88;;;30.98
64184;BMP280;50485;49.768;8.636;2022-07-06T12:27:35;101016.69;;;31.00
64184;BMP280;50485;49.768;8.636;2022-07-06T12:30:10;101023.41;;;30.99
64184;BMP280;50485;49.768;8.636;2022-07-06T12:32:36;101023.50;;;30.95
64184;BMP280;50485;49.768;8.636;2022-07-06T12:35:02;101026.72;;;30.94
64184;BMP280;50485;49.768;8.636;2022-07-06T12:37:27;101023.94;;;30.94
64184;BMP280;50485;49.768;8.636;2022-07-06T12:39:52;101018.97;;;30.89
64184;BMP280;50485;49.768;8.636;2022-07-06T12:42:17;101022.47;;;30.89
64184;BMP280;50485;49.768;8.636;2022-07-06T12:44:43;101005.97;;;30.86
64184;BMP280;50485;49.768;8.636;2022-07-06T12:47:09;101017.03;;;30.86
64184;BMP280;50485;49.768;8.636;2022-07-06T12:49:37;101026.03;;;30.90
64184;BMP280;50485;49.768;8.636;2022-07-06T12:52:08;101010.69;;;30.85
64184;BMP280;50485;49.768;8.636;2022-07-06T12:54:40;101016.31;;;30.81
64184;BMP280;50485;49.768;8.636;2022-07-06T12:57:07;101017.63;;;30.77
64184;BMP280;50485;49.768;8.636;2022-07-06T12:59:34;101016.84;;;30.76
64184;BMP280;50485;49.768;8.636;2022-07-06T13:01:59;101022.84;;;30.75
64184;BMP280;50485;49.768;8.636;2022-07-06T13:04:25;101024.09;;;30.70
64184;BMP280;50485;49.768;8.636;2022-07-06T13:06:51;101015.78;;;30.70
64184;BMP280;50485;49.768;8.636;2022-07-06T13:09:17;101013.09;;;30.67
64184;BMP280;50485;49.768;8.636;2022-07-06T13:11:43;101009.59;;;30.66
64184;BMP280;50485;49.768;8.636;2022-07-06T13:14:09;101010.44;;;30.63
64184;BMP280;50485;49.768;8.636;2022-07-06T13:16:34;101007.31;;;30.61
64184;BMP280;50485;49.768;8.636;2022-07-06T13:19:00;101008.59;;;30.57
64184;BMP280;50485;49.768;8.636;2022-07-06T13:21:25;101000.00;;;30.55
64184;BMP280;50485;49.768;8.636;2022-07-06T13:23:50;100998.31;;;30.57
64184;BMP280;50485;49.768;8.636;2022-07-06T13:26:16;100997.13;;;30.58
64184;BMP280;50485;49.768;8.636;2022-07-06T13:28:41;100997.53;;;30.57
64184;BMP280;50485;49.768;8.636;2022-07-06T13:31:06;101000.06;;;30.51
64184;BMP280;50485;49.768;8.636;2022-07-06T13:33:31;100996.94;;;30.49
64184;BMP280;50485;49.768;8.636;2022-07-06T13:35:56;100990.28;;;30.46
64184;BMP280;50485;49.768;8.636;2022-07-06T13:38:22;100991.91;;;30.44
64184;BMP280;50485;49.768;8.636;2022-07-06T13:40:47;100990.34;;;30.43
64184;BMP280;50485;49.768;8.636;2022-07-06T13:43:12;100986.47;;;30.40
64184;BMP280;50485;49.768;8.636;2022-07-06T13:45:37;100980.13;;;30.40
64184;BMP280;50485;49.768;8.636;2022-07-06T13:48:02;100981.34;;;30.39
64184;BMP280;50485;49.768;8.636;2022-07-06T13:50:28;100979.44;;;30.36
64184;BMP280;50485;49.768;8.636;2022-07-06T13:52:57;100981.88;;;30.34
64184;BMP280;50485;49.768;8.636;2022-07-06T13:55:22;100977.53;;;30.33
64184;BMP280;50485;49.768;8.636;2022-07-06T13:57:47;100974.06;;;30.29
64184;BMP280;50485;49.768;8.636;2022-07-06T14:00:13;100978.06;;;30.28
64184;BMP280;50485;49.768;8.636;2022-07-06T14:02:39;100976.50;;;30.27